createdAt,value
2018-07-10T00:00:25.530Z,24.05
2018-07-10T00:01:25.490Z,24.08
2018-07-10T00:02:25.475Z,24.01
2018-07-10T00:03:25.448Z,24.05
2018-07-10T00:04:25.450Z,24.02
2018-07-10T00:05:25.381Z,23.97
2018-07-10T00:06:25.350Z,24.05
2018-07-10T00:07:25.346Z,23.95
2018-07-10T00:08:25.291Z,24.05
2018-07-10T00:09:25.257Z,23.98
2018-07-10T00:10:25.482Z,24.01
2018-07-10T00:11:25.195Z,23.98
2018-07-10T00:12:25.185Z,24.08
2018-07-10T00:13:25.129Z,23.97
2018-07-10T00:14:25.120Z,23.92
2018-07-10T00:15:25.082Z,23.94
2018-07-10T00:16:25.056Z,23.97
2018-07-10T00:17:25.035Z,23.90
2018-07-10T00:18:25.019Z,23.89
2018-07-10T00:19:24.992Z,23.87
2018-07-10T00:20:24.950Z,23.87
2018-07-10T00:21:24.931Z,23.98
2018-07-10T00:22:24.891Z,23.97
2018-07-10T00:23:24.855Z,23.94
2018-07-10T00:24:24.844Z,23.95
2018-07-10T00:25:24.793Z,24.00
2018-07-10T00:26:24.764Z,23.94
2018-07-10T00:28:24.747Z,23.90
2018-07-10T00:29:24.715Z,23.83
2018-07-10T00:30:24.646Z,23.77
2018-07-10T00:31:24.608Z,23.75
2018-07-10T00:32:24.753Z,23.77
2018-07-10T00:33:24.583Z,23.61
2018-07-10T00:34:24.538Z,23.70
2018-07-10T00:35:24.506Z,23.60
2018-07-10T00:36:24.481Z,23.57
2018-07-10T00:37:24.472Z,23.52
2018-07-10T00:38:24.440Z,23.45
2018-07-10T00:39:24.586Z,23.45
2018-07-10T00:40:24.396Z,23.52
2018-07-10T00:41:24.510Z,23.46
2018-07-10T00:42:24.297Z,23.39
2018-07-10T00:44:24.258Z,23.38
2018-07-10T00:45:24.263Z,23.35
2018-07-10T00:46:24.179Z,23.38
2018-07-10T00:47:24.129Z,23.29
2018-07-10T00:48:24.166Z,23.20
2018-07-10T00:49:24.276Z,23.15
2018-07-10T00:50:24.039Z,23.09
2018-07-10T00:51:24.054Z,22.93
2018-07-10T00:52:23.989Z,22.86
2018-07-10T00:53:57.372Z,22.86
2018-07-10T00:54:23.927Z,22.77
2018-07-10T00:55:24.093Z,22.74
2018-07-10T00:56:23.859Z,22.68
2018-07-10T00:57:23.829Z,22.65
2018-07-10T00:58:36.560Z,22.64
2018-07-10T00:59:23.771Z,22.59
2018-07-10T01:00:23.770Z,22.62
2018-07-10T01:01:23.744Z,22.67
2018-07-10T01:02:23.713Z,22.68
2018-07-10T01:03:23.713Z,22.72
2018-07-10T01:04:23.736Z,22.75
2018-07-10T01:05:23.611Z,22.75
2018-07-10T01:06:23.771Z,22.71
2018-07-10T01:07:23.530Z,22.72
2018-07-10T01:08:23.527Z,22.78
2018-07-10T01:09:23.461Z,22.82
2018-07-10T01:10:23.475Z,22.72
2018-07-10T01:11:23.432Z,22.71
2018-07-10T01:12:23.443Z,22.65
2018-07-10T01:13:23.350Z,22.74
2018-07-10T01:14:23.313Z,22.74
2018-07-10T01:15:23.280Z,22.68
2018-07-10T01:16:23.271Z,22.72
2018-07-10T01:17:23.228Z,22.67
2018-07-10T01:18:23.209Z,22.67
2018-07-10T01:19:23.166Z,22.71
2018-07-10T01:20:23.241Z,22.62
2018-07-10T01:21:23.111Z,22.68
2018-07-10T01:22:23.081Z,22.59
2018-07-10T01:23:23.054Z,22.62
2018-07-10T01:24:23.019Z,22.67
2018-07-10T01:25:22.987Z,22.60
2018-07-10T01:26:22.965Z,22.67
2018-07-10T01:27:22.919Z,22.53
2018-07-10T01:28:22.910Z,22.54
2018-07-10T01:29:22.882Z,22.39
2018-07-10T01:30:22.843Z,22.37
2018-07-10T01:31:22.822Z,22.41
2018-07-10T01:32:22.797Z,22.39
2018-07-10T01:33:22.753Z,22.38
2018-07-10T01:34:22.736Z,22.38
2018-07-10T01:35:22.904Z,22.38
2018-07-10T01:36:22.748Z,22.52
2018-07-10T01:37:22.633Z,22.53
2018-07-10T01:38:22.603Z,22.53
2018-07-10T01:39:22.577Z,22.49
2018-07-10T01:40:22.684Z,22.49
2018-07-10T01:41:22.504Z,22.44
2018-07-10T01:42:22.498Z,22.46
2018-07-10T01:43:22.446Z,22.47
2018-07-10T01:44:22.440Z,22.38
2018-07-10T01:45:22.513Z,22.43
2018-07-10T01:46:22.405Z,22.47
2018-07-10T01:47:22.368Z,22.35
2018-07-10T01:48:22.309Z,22.35
2018-07-10T01:49:22.292Z,22.28
2018-07-10T01:50:22.273Z,22.29
2018-07-10T01:51:22.577Z,22.32
2018-07-10T01:52:22.245Z,22.17
2018-07-10T01:53:22.158Z,22.31
2018-07-10T01:54:22.113Z,22.23
2018-07-10T01:55:22.102Z,22.20
2018-07-10T01:56:22.416Z,22.17
2018-07-10T01:57:22.310Z,22.25
2018-07-10T01:58:22.282Z,22.14
2018-07-10T01:59:22.273Z,22.07
2018-07-10T02:00:22.080Z,22.14
2018-07-10T02:01:22.185Z,22.01
2018-07-10T02:02:21.979Z,22.09
2018-07-10T02:03:22.260Z,22.10
2018-07-10T02:04:21.889Z,22.02
2018-07-10T02:05:21.846Z,22.12
2018-07-10T02:06:21.772Z,22.07
2018-07-10T02:07:22.378Z,21.98
2018-07-10T02:08:21.709Z,21.97
2018-07-10T02:09:21.674Z,22.04
2018-07-10T02:10:21.661Z,22.04
2018-07-10T02:11:21.626Z,22.04
2018-07-10T02:12:21.589Z,21.95
2018-07-10T02:13:21.556Z,22.04
2018-07-10T02:14:21.669Z,22.09
2018-07-10T02:15:21.560Z,22.04
2018-07-10T02:16:21.589Z,22.06
2018-07-10T02:17:21.422Z,22.02
2018-07-10T02:18:21.396Z,22.07
2018-07-10T02:19:21.372Z,22.04
2018-07-10T02:20:21.348Z,21.90
2018-07-10T02:21:21.289Z,21.94
2018-07-10T02:22:21.290Z,21.91
2018-07-10T02:23:21.240Z,21.88
2018-07-10T02:24:21.212Z,21.94
2018-07-10T02:25:21.431Z,21.85
2018-07-10T02:26:21.144Z,21.94
2018-07-10T02:27:21.137Z,21.95
2018-07-10T02:28:21.094Z,21.95
2018-07-10T02:29:21.074Z,21.98
2018-07-10T02:30:21.033Z,21.95
2018-07-10T02:31:21.277Z,21.94
2018-07-10T02:32:20.981Z,21.91
2018-07-10T02:33:20.983Z,21.92
2018-07-10T02:34:20.915Z,21.94
2018-07-10T02:35:20.897Z,21.91
2018-07-10T02:36:20.874Z,21.91
2018-07-10T02:37:20.821Z,21.81
2018-07-10T02:38:20.814Z,21.85
2018-07-10T02:39:20.771Z,21.79
2018-07-10T02:40:20.963Z,21.74
2018-07-10T02:41:20.713Z,21.78
2018-07-10T02:42:20.688Z,21.76
2018-07-10T02:43:20.633Z,21.88
2018-07-10T02:44:20.637Z,21.88
2018-07-10T02:45:20.583Z,21.88
2018-07-10T02:46:20.793Z,21.88
2018-07-10T02:47:20.585Z,21.79
2018-07-10T02:48:20.496Z,21.79
2018-07-10T02:49:20.470Z,21.76
2018-07-10T02:50:20.422Z,21.78
2018-07-10T02:51:20.424Z,21.78
2018-07-10T02:52:20.373Z,21.78
2018-07-10T02:53:20.349Z,21.75
2018-07-10T02:54:20.326Z,21.71
2018-07-10T02:55:20.277Z,21.74
2018-07-10T02:56:20.229Z,21.71
2018-07-10T02:57:20.201Z,21.63
2018-07-10T02:58:20.179Z,21.66
2018-07-10T02:59:20.146Z,21.64
2018-07-10T03:00:20.140Z,21.64
2018-07-10T03:01:20.080Z,21.61
2018-07-10T03:02:20.045Z,21.60
2018-07-10T03:03:20.017Z,21.63
2018-07-10T03:04:20.027Z,21.61
2018-07-10T03:05:53.172Z,21.61
2018-07-10T03:06:53.144Z,21.66
2018-07-10T03:07:53.217Z,21.61
2018-07-10T03:08:19.858Z,21.63
2018-07-10T03:09:19.831Z,21.61
2018-07-10T03:10:19.856Z,21.66
2018-07-10T03:11:19.798Z,21.63
2018-07-10T03:12:19.749Z,21.63
2018-07-10T03:13:19.705Z,21.69
2018-07-10T03:14:19.682Z,21.72
2018-07-10T03:15:19.655Z,21.74
2018-07-10T03:16:19.666Z,21.75
2018-07-10T03:17:19.587Z,21.82
2018-07-10T03:18:19.826Z,21.83
2018-07-10T03:19:19.519Z,21.81
2018-07-10T03:20:19.509Z,21.94
2018-07-10T03:21:19.501Z,21.78
2018-07-10T03:22:19.450Z,21.85
2018-07-10T03:23:20.007Z,21.85
2018-07-10T03:24:19.380Z,21.74
2018-07-10T03:25:19.340Z,21.71
2018-07-10T03:26:19.320Z,21.63
2018-07-10T03:27:19.298Z,21.64
2018-07-10T03:28:19.253Z,21.51
2018-07-10T03:29:19.459Z,21.51
2018-07-10T03:30:19.293Z,21.48
2018-07-10T03:31:19.164Z,21.53
2018-07-10T03:32:19.123Z,21.42
2018-07-10T03:33:19.090Z,21.35
2018-07-10T03:34:19.097Z,21.35
2018-07-10T03:35:19.190Z,21.32
2018-07-10T03:36:19.007Z,21.29
2018-07-10T03:37:18.991Z,21.26
2018-07-10T03:38:18.980Z,21.32
2018-07-10T03:39:18.917Z,21.30
2018-07-10T03:40:18.935Z,21.29
2018-07-10T03:41:18.872Z,21.26
2018-07-10T03:42:18.832Z,21.26
2018-07-10T03:43:18.893Z,21.26
2018-07-10T03:44:18.755Z,21.23
2018-07-10T03:45:18.754Z,21.20
2018-07-10T03:47:18.674Z,21.19
2018-07-10T03:48:18.627Z,21.16
2018-07-10T03:49:18.601Z,21.19
2018-07-10T03:50:18.559Z,21.29
2018-07-10T03:51:18.740Z,21.20
2018-07-10T03:52:18.513Z,21.19
2018-07-10T03:53:18.491Z,21.21
2018-07-10T03:54:18.448Z,21.19
2018-07-10T03:55:18.409Z,21.17
2018-07-10T03:56:18.384Z,21.17
2018-07-10T03:57:18.444Z,21.08
2018-07-10T03:58:18.323Z,21.05
2018-07-10T03:59:18.316Z,21.01
2018-07-10T04:00:18.269Z,20.98
2018-07-10T04:01:18.229Z,21.02
2018-07-10T04:02:18.316Z,20.87
2018-07-10T04:03:18.186Z,20.98
2018-07-10T04:04:18.132Z,21.02
2018-07-10T04:05:18.123Z,20.96
2018-07-10T04:06:18.109Z,21.05
2018-07-10T04:07:18.050Z,21.05
2018-07-10T04:08:18.011Z,21.01
2018-07-10T04:09:17.981Z,21.02
2018-07-10T04:10:17.944Z,21.06
2018-07-10T04:11:17.920Z,21.01
2018-07-10T04:12:17.902Z,21.08
2018-07-10T04:13:18.056Z,21.11
2018-07-10T04:14:17.829Z,21.11
2018-07-10T04:15:17.802Z,21.06
2018-07-10T04:16:17.759Z,21.13
2018-07-10T04:17:17.734Z,21.09
2018-07-10T04:18:17.709Z,21.13
2018-07-10T04:19:17.663Z,21.08
2018-07-10T04:20:17.641Z,21.09
2018-07-10T04:21:17.621Z,21.11
2018-07-10T04:22:17.828Z,21.06
2018-07-10T04:23:17.542Z,20.96
2018-07-10T04:24:17.507Z,20.98
2018-07-10T04:25:17.494Z,20.96
2018-07-10T04:26:17.457Z,20.87
2018-07-10T04:27:17.684Z,20.96
2018-07-10T04:28:17.485Z,20.91
2018-07-10T04:29:17.355Z,20.86
2018-07-10T04:30:17.329Z,21.05
2018-07-10T04:31:17.317Z,20.99
2018-07-10T04:32:17.471Z,21.05
2018-07-10T04:33:17.590Z,21.04
2018-07-10T04:34:17.200Z,20.98
2018-07-10T04:35:17.166Z,21.01
2018-07-10T04:36:17.144Z,21.01
2018-07-10T04:37:17.111Z,20.89
2018-07-10T04:38:17.072Z,20.87
2018-07-10T04:39:17.396Z,20.86
2018-07-10T04:40:17.029Z,20.87
2018-07-10T04:41:16.979Z,20.98
2018-07-10T04:42:16.991Z,21.05
2018-07-10T04:43:16.946Z,21.11
2018-07-10T04:44:16.878Z,21.13
2018-07-10T04:45:16.999Z,21.16
2018-07-10T04:46:16.831Z,21.14
2018-07-10T04:47:16.784Z,21.11
2018-07-10T04:48:16.773Z,21.09
2018-07-10T04:49:16.753Z,21.14
2018-07-10T04:50:16.684Z,21.13
2018-07-10T04:51:16.674Z,21.05
2018-07-10T04:52:16.636Z,21.08
2018-07-10T04:53:16.589Z,21.19
2018-07-10T04:54:16.562Z,21.17
2018-07-10T04:55:16.542Z,21.19
2018-07-10T04:56:16.754Z,21.16
2018-07-10T04:57:16.473Z,21.17
2018-07-10T04:58:16.439Z,21.17
2018-07-10T04:59:16.403Z,21.17
2018-07-10T05:00:16.391Z,21.14
2018-07-10T05:01:16.340Z,21.14
2018-07-10T05:02:16.460Z,20.99
2018-07-10T05:03:16.291Z,21.01
2018-07-10T05:04:16.246Z,20.96
2018-07-10T05:05:16.216Z,20.84
2018-07-10T05:06:16.185Z,20.79
2018-07-10T05:07:16.152Z,20.81
2018-07-10T05:08:16.442Z,20.74
2018-07-10T05:09:16.091Z,20.68
2018-07-10T05:10:16.065Z,20.69
2018-07-10T05:11:16.031Z,20.62
2018-07-10T05:12:15.999Z,20.62
2018-07-10T05:13:15.964Z,20.61
2018-07-10T05:14:16.093Z,20.59
2018-07-10T05:15:15.905Z,20.62
2018-07-10T05:16:15.875Z,20.47
2018-07-10T05:17:15.842Z,20.54
2018-07-10T05:18:15.811Z,20.56
2018-07-10T05:19:15.777Z,20.62
2018-07-10T05:20:15.744Z,20.61
2018-07-10T05:21:15.722Z,20.54
2018-07-10T05:22:15.683Z,20.56
2018-07-10T05:23:15.652Z,20.56
2018-07-10T05:24:15.639Z,20.51
2018-07-10T05:25:15.589Z,20.43
2018-07-10T05:26:15.557Z,20.41
2018-07-10T05:27:15.531Z,20.43
2018-07-10T05:28:15.498Z,20.39
2018-07-10T05:29:15.493Z,20.43
2018-07-10T05:30:15.737Z,20.51
2018-07-10T05:31:15.402Z,20.50
2018-07-10T05:32:15.375Z,20.59
2018-07-10T05:33:15.346Z,20.59
2018-07-10T05:34:15.307Z,20.42
2018-07-10T05:35:15.278Z,20.34
2018-07-10T05:36:15.463Z,20.34
2018-07-10T05:37:15.255Z,20.31
2018-07-10T05:38:15.183Z,20.23
2018-07-10T05:39:15.150Z,20.21
2018-07-10T05:40:15.124Z,20.16
2018-07-10T05:41:15.084Z,20.16
2018-07-10T05:42:15.356Z,20.18
2018-07-10T05:43:15.024Z,20.10
2018-07-10T05:44:14.990Z,20.13
2018-07-10T05:45:14.960Z,20.20
2018-07-10T05:46:14.933Z,20.03
2018-07-10T05:47:14.898Z,20.16
2018-07-10T05:48:14.865Z,20.08
2018-07-10T05:49:14.834Z,20.03
2018-07-10T05:50:14.804Z,20.08
2018-07-10T05:51:14.770Z,20.05
2018-07-10T05:52:14.746Z,20.05
2018-07-10T05:53:14.707Z,20.10
2018-07-10T05:54:14.677Z,20.08
2018-07-10T05:55:14.734Z,20.05
2018-07-10T05:56:14.616Z,20.00
2018-07-10T05:57:14.589Z,19.98
2018-07-10T05:58:14.717Z,19.95
2018-07-10T05:59:14.520Z,19.97
2018-07-10T06:00:14.498Z,19.97
2018-07-10T06:01:14.468Z,19.95
2018-07-10T06:02:14.438Z,19.90
2018-07-10T06:03:14.406Z,19.94
2018-07-10T06:04:14.528Z,19.93
2018-07-10T06:05:14.338Z,19.91
2018-07-10T06:06:14.305Z,19.83
2018-07-10T06:07:14.275Z,19.72
2018-07-10T06:08:14.254Z,19.87
2018-07-10T06:09:14.213Z,19.83
2018-07-10T06:10:14.331Z,19.75
2018-07-10T06:11:14.148Z,19.73
2018-07-10T06:12:14.124Z,19.68
2018-07-10T06:13:14.090Z,19.83
2018-07-10T06:14:14.073Z,19.83
2018-07-10T06:15:14.037Z,19.93
2018-07-10T06:16:14.019Z,19.94
2018-07-10T06:17:14.117Z,19.94
2018-07-10T06:18:14.023Z,19.91
2018-07-10T06:19:13.901Z,19.91
2018-07-10T06:20:14.191Z,19.93
2018-07-10T06:21:13.830Z,19.94
2018-07-10T06:22:13.853Z,19.93
2018-07-10T06:23:13.772Z,19.98
2018-07-10T06:24:13.741Z,19.95
2018-07-10T06:25:13.710Z,20.02
2018-07-10T06:26:13.673Z,19.94
2018-07-10T06:27:14.026Z,19.93
2018-07-10T06:28:13.817Z,19.93
2018-07-10T06:29:13.625Z,19.90
2018-07-10T06:30:13.571Z,19.91
2018-07-10T06:31:13.517Z,19.91
2018-07-10T06:32:13.485Z,19.80
2018-07-10T06:33:13.455Z,19.80
2018-07-10T06:34:13.422Z,19.78
2018-07-10T06:35:13.396Z,19.65
2018-07-10T06:36:13.363Z,19.70
2018-07-10T06:37:13.839Z,19.70
2018-07-10T06:38:13.291Z,19.70
2018-07-10T06:39:13.267Z,19.69
2018-07-10T06:40:13.236Z,19.72
2018-07-10T06:41:13.197Z,19.79
2018-07-10T06:42:13.189Z,19.75
2018-07-10T06:43:13.233Z,19.66
2018-07-10T06:44:13.105Z,19.73
2018-07-10T06:45:13.080Z,19.69
2018-07-10T06:46:13.040Z,19.72
2018-07-10T06:47:13.009Z,19.73
2018-07-10T06:48:12.979Z,19.68
2018-07-10T06:49:12.950Z,19.73
2018-07-10T06:50:12.910Z,19.65
2018-07-10T06:51:12.900Z,19.68
2018-07-10T06:52:12.865Z,19.55
2018-07-10T06:53:13.109Z,19.58
2018-07-10T06:54:12.784Z,19.65
2018-07-10T06:55:12.753Z,19.65
2018-07-10T06:56:12.721Z,19.70
2018-07-10T06:57:12.689Z,19.73
2018-07-10T06:58:12.667Z,19.72
2018-07-10T06:59:12.624Z,19.66
2018-07-10T07:00:12.592Z,19.69
2018-07-10T07:01:12.560Z,19.69
2018-07-10T07:02:12.535Z,19.72
2018-07-10T07:03:12.502Z,19.73
2018-07-10T07:04:12.715Z,19.69
2018-07-10T07:05:12.441Z,19.72
2018-07-10T07:06:12.404Z,19.78
2018-07-10T07:07:12.368Z,19.87
2018-07-10T07:08:12.354Z,19.90
2018-07-10T07:09:12.315Z,19.94
2018-07-10T07:10:12.470Z,19.87
2018-07-10T07:11:12.245Z,19.84
2018-07-10T07:12:12.215Z,19.75
2018-07-10T07:13:12.175Z,19.76
2018-07-10T07:14:12.169Z,19.69
2018-07-10T07:15:12.117Z,19.75
2018-07-10T07:16:12.190Z,19.72
2018-07-10T07:17:12.048Z,19.69
2018-07-10T07:18:12.018Z,19.73
2018-07-10T07:19:11.989Z,19.72
2018-07-10T07:20:11.953Z,19.69
2018-07-10T07:21:11.921Z,19.69
2018-07-10T07:22:11.895Z,19.70
2018-07-10T07:23:11.855Z,19.72
2018-07-10T07:24:11.822Z,19.65
2018-07-10T07:25:12.004Z,19.55
2018-07-10T07:27:12.220Z,19.51
2018-07-10T07:28:11.936Z,19.54
2018-07-10T07:29:11.825Z,19.43
2018-07-10T07:30:11.777Z,19.42
2018-07-10T07:31:11.768Z,19.35
2018-07-10T07:32:11.808Z,19.38
2018-07-10T07:33:11.684Z,19.32
2018-07-10T07:34:11.594Z,19.40
2018-07-10T07:35:11.635Z,19.40
2018-07-10T07:36:12.312Z,19.35
2018-07-10T07:37:11.567Z,19.35
2018-07-10T07:38:11.851Z,19.35
2018-07-10T07:39:11.591Z,19.31
2018-07-10T07:40:11.452Z,19.35
2018-07-10T07:41:11.404Z,19.28
2018-07-10T07:42:11.489Z,19.35
2018-07-10T07:43:11.366Z,19.25
2018-07-10T07:44:11.541Z,19.32
2018-07-10T07:45:11.263Z,19.33
2018-07-10T07:46:11.280Z,19.35
2018-07-10T07:47:11.444Z,19.36
2018-07-10T07:48:11.290Z,19.25
2018-07-10T07:49:11.196Z,19.38
2018-07-10T07:50:11.251Z,19.36
2018-07-10T07:51:11.089Z,19.36
2018-07-10T07:52:11.179Z,19.42
2018-07-10T07:53:11.027Z,19.33
2018-07-10T07:54:11.029Z,19.31
2018-07-10T07:55:11.024Z,19.36
2018-07-10T07:56:11.276Z,19.38
2018-07-10T07:57:10.876Z,19.40
2018-07-10T07:58:10.887Z,19.38
2018-07-10T07:59:11.213Z,19.33
2018-07-10T08:00:10.960Z,19.38
2018-07-10T08:01:10.896Z,19.33
2018-07-10T08:02:11.325Z,19.36
2018-07-10T08:03:10.710Z,19.36
2018-07-10T08:04:10.800Z,19.31
2018-07-10T08:05:10.669Z,19.35
2018-07-10T08:06:10.755Z,19.35
2018-07-10T08:07:10.683Z,19.31
2018-07-10T08:08:10.635Z,19.31
2018-07-10T08:09:10.522Z,19.35
2018-07-10T08:10:10.753Z,19.28
2018-07-10T08:11:10.784Z,19.24
2018-07-10T08:12:10.451Z,19.31
2018-07-10T08:13:10.320Z,19.35
2018-07-10T08:14:10.222Z,19.35
2018-07-10T08:15:10.185Z,19.28
2018-07-10T08:16:10.550Z,19.24
2018-07-10T08:17:10.124Z,19.23
2018-07-10T08:18:10.097Z,19.23
2018-07-10T08:19:10.088Z,19.23
2018-07-10T08:20:10.024Z,19.20
2018-07-10T08:21:09.992Z,19.15
2018-07-10T08:22:10.362Z,19.10
2018-07-10T08:23:09.935Z,19.10
2018-07-10T08:24:09.896Z,19.08
2018-07-10T08:25:09.866Z,19.13
2018-07-10T08:26:10.044Z,19.08
2018-07-10T08:27:09.799Z,18.95
2018-07-10T08:28:09.766Z,18.94
2018-07-10T08:29:09.978Z,18.95
2018-07-10T08:30:09.705Z,19.02
2018-07-10T08:31:09.680Z,18.98
2018-07-10T08:32:09.638Z,19.01
2018-07-10T08:33:09.602Z,18.98
2018-07-10T08:34:09.578Z,18.99
2018-07-10T08:35:09.540Z,18.98
2018-07-10T08:36:09.511Z,18.97
2018-07-10T08:37:09.475Z,19.01
2018-07-10T08:38:10.253Z,19.06
2018-07-10T08:39:09.417Z,19.05
2018-07-10T08:40:09.382Z,19.11
2018-07-10T08:41:09.347Z,19.05
2018-07-10T08:42:09.315Z,19.11
2018-07-10T08:43:09.280Z,19.11
2018-07-10T08:44:09.547Z,19.05
2018-07-10T08:45:09.357Z,19.10
2018-07-10T08:46:09.193Z,19.08
2018-07-10T08:47:09.507Z,19.11
2018-07-10T08:48:09.119Z,19.14
2018-07-10T08:49:09.102Z,19.02
2018-07-10T08:50:09.055Z,19.08
2018-07-10T08:51:09.022Z,18.94
2018-07-10T08:52:08.988Z,19.02
2018-07-10T08:53:08.957Z,18.97
2018-07-10T08:54:08.929Z,19.05
2018-07-10T08:55:08.890Z,19.05
2018-07-10T08:56:08.865Z,18.92
2018-07-10T08:57:08.832Z,18.97
2018-07-10T08:58:08.799Z,18.84
2018-07-10T08:59:08.761Z,18.97
2018-07-10T09:00:08.731Z,18.95
2018-07-10T09:01:08.704Z,18.99
2018-07-10T09:02:08.665Z,18.98
2018-07-10T09:03:08.667Z,18.98
2018-07-10T09:04:08.602Z,18.97
2018-07-10T09:05:08.578Z,18.98
2018-07-10T09:06:08.661Z,19.10
2018-07-10T09:07:08.515Z,19.10
2018-07-10T09:08:08.475Z,19.06
2018-07-10T09:09:08.437Z,19.05
2018-07-10T09:10:08.407Z,19.02
2018-07-10T09:11:08.422Z,18.98
2018-07-10T09:12:08.343Z,19.05
2018-07-10T09:13:08.312Z,19.10
2018-07-10T09:14:08.285Z,18.97
2018-07-10T09:15:08.258Z,18.98
2018-07-10T09:16:08.213Z,18.92
2018-07-10T09:17:08.204Z,18.95
2018-07-10T09:18:08.158Z,18.84
2018-07-10T09:19:08.119Z,18.82
2018-07-10T09:20:08.081Z,18.80
2018-07-10T09:21:08.099Z,18.87
2018-07-10T09:22:08.070Z,18.83
2018-07-10T09:23:07.999Z,18.86
2018-07-10T09:24:07.957Z,18.80
2018-07-10T09:25:07.927Z,18.87
2018-07-10T09:26:07.893Z,18.92
2018-07-10T09:27:07.863Z,18.90
2018-07-10T09:28:07.822Z,18.92
2018-07-10T09:29:07.788Z,18.95
2018-07-10T09:30:07.758Z,18.84
2018-07-10T09:31:07.726Z,18.94
2018-07-10T09:32:07.693Z,18.99
2018-07-10T09:33:07.661Z,18.92
2018-07-10T09:34:07.640Z,18.94
2018-07-10T09:35:07.598Z,18.95
2018-07-10T09:36:07.563Z,18.91
2018-07-10T09:37:07.688Z,18.91
2018-07-10T09:38:07.546Z,18.87
2018-07-10T09:39:07.464Z,18.92
2018-07-10T09:40:07.432Z,18.95
2018-07-10T09:41:07.398Z,18.98
2018-07-10T09:42:07.366Z,18.95
2018-07-10T09:43:07.536Z,18.98
2018-07-10T09:44:07.370Z,18.95
2018-07-10T09:45:07.270Z,18.98
2018-07-10T09:46:07.247Z,18.99
2018-07-10T09:47:07.203Z,18.98
2018-07-10T09:48:07.184Z,18.92
2018-07-10T09:49:07.343Z,18.98
2018-07-10T09:50:07.106Z,18.91
2018-07-10T09:51:07.076Z,18.82
2018-07-10T09:52:07.038Z,18.83
2018-07-10T09:53:07.013Z,18.86
2018-07-10T09:54:06.987Z,18.84
2018-07-10T09:55:07.031Z,18.80
2018-07-10T09:56:06.912Z,18.97
2018-07-10T09:57:06.883Z,18.98
2018-07-10T09:58:06.848Z,19.10
2018-07-10T09:59:06.818Z,19.05
2018-07-10T10:00:06.782Z,19.10
2018-07-10T10:01:06.758Z,19.11
2018-07-10T10:02:06.724Z,19.25
2018-07-10T10:03:06.684Z,19.33
2018-07-10T10:04:06.654Z,19.47
2018-07-10T10:05:06.636Z,19.54
2018-07-10T10:06:06.590Z,19.60
2018-07-10T10:07:06.553Z,19.51
2018-07-10T10:08:06.523Z,19.68
2018-07-10T10:09:06.495Z,19.72
2018-07-10T10:10:06.532Z,19.76
2018-07-10T10:11:06.429Z,19.86
2018-07-10T10:12:06.413Z,19.98
2018-07-10T10:13:06.367Z,20.02
2018-07-10T10:14:06.336Z,19.97
2018-07-10T10:15:06.457Z,20.13
2018-07-10T10:16:06.271Z,20.27
2018-07-10T10:17:06.238Z,20.31
2018-07-10T10:18:06.212Z,20.35
2018-07-10T10:19:06.185Z,20.56
2018-07-10T10:20:06.149Z,20.59
2018-07-10T10:21:06.120Z,20.62
2018-07-10T10:22:06.084Z,20.74
2018-07-10T10:23:06.051Z,20.80
2018-07-10T10:24:06.019Z,20.91
2018-07-10T10:25:05.987Z,21.05
2018-07-10T10:26:05.968Z,21.11
2018-07-10T10:27:05.932Z,21.27
2018-07-10T10:28:05.904Z,21.36
2018-07-10T10:29:05.869Z,21.41
2018-07-10T10:30:05.841Z,21.60
2018-07-10T10:31:05.804Z,21.81
2018-07-10T10:32:05.779Z,21.94
2018-07-10T10:33:05.752Z,22.01
2018-07-10T10:34:05.735Z,22.12
2018-07-10T10:35:05.712Z,22.25
2018-07-10T10:36:05.656Z,22.43
2018-07-10T10:37:05.626Z,22.52
2018-07-10T10:38:05.599Z,22.60
2018-07-10T10:39:05.575Z,22.77
2018-07-10T10:40:05.544Z,22.87
2018-07-10T10:41:05.530Z,22.83
2018-07-10T10:42:05.481Z,22.94
2018-07-10T10:43:05.472Z,23.11
2018-07-10T10:44:05.417Z,23.20
2018-07-10T10:45:05.393Z,23.29
2018-07-10T10:46:05.368Z,23.40
2018-07-10T10:47:05.331Z,23.43
2018-07-10T10:48:05.301Z,23.43
2018-07-10T10:49:05.273Z,23.64
2018-07-10T10:50:05.248Z,23.62
2018-07-10T10:51:05.214Z,23.72
2018-07-10T10:52:05.187Z,23.75
2018-07-10T10:53:05.171Z,23.75
2018-07-10T10:54:05.130Z,23.71
2018-07-10T10:55:05.168Z,23.70
2018-07-10T10:56:05.133Z,23.62
2018-07-10T10:57:05.045Z,23.65
2018-07-10T10:58:05.015Z,23.60
2018-07-10T10:59:04.988Z,23.75
2018-07-10T11:00:04.958Z,23.71
2018-07-10T11:01:05.078Z,23.67
2018-07-10T11:02:05.104Z,23.53
2018-07-10T11:03:04.877Z,23.46
2018-07-10T11:04:04.856Z,23.52
2018-07-10T11:05:04.822Z,23.35
2018-07-10T11:06:04.804Z,23.45
2018-07-10T11:07:04.763Z,23.60
2018-07-10T11:08:04.733Z,23.58
2018-07-10T11:09:04.725Z,23.64
2018-07-10T11:10:04.697Z,23.76
2018-07-10T11:11:04.655Z,23.71
2018-07-10T11:12:04.626Z,23.72
2018-07-10T11:13:04.605Z,23.75
2018-07-10T11:14:04.614Z,23.94
2018-07-10T11:15:04.546Z,23.83
2018-07-10T11:16:04.520Z,23.95
2018-07-10T11:17:04.488Z,24.02
2018-07-10T11:18:04.478Z,23.98
2018-07-10T11:19:04.605Z,24.02
2018-07-10T11:20:04.440Z,24.12
2018-07-10T11:21:04.395Z,24.05
2018-07-10T11:22:04.355Z,24.14
2018-07-10T11:23:04.329Z,24.12
2018-07-10T11:24:04.310Z,24.08
2018-07-10T11:25:04.287Z,24.10
2018-07-10T11:26:04.255Z,24.05
2018-07-10T11:27:04.237Z,24.05
2018-07-10T11:28:04.210Z,24.07
2018-07-10T11:29:04.172Z,24.05
2018-07-10T11:30:04.164Z,24.02
2018-07-10T11:31:04.116Z,24.08
2018-07-10T11:32:04.094Z,24.07
2018-07-10T11:33:04.073Z,24.08
2018-07-10T11:34:04.039Z,24.05
2018-07-10T11:35:04.024Z,24.08
2018-07-10T11:36:03.993Z,24.14
2018-07-10T11:37:03.971Z,24.07
2018-07-10T11:38:03.945Z,24.17
2018-07-10T11:39:03.995Z,24.08
2018-07-10T11:40:03.894Z,24.12
2018-07-10T11:41:03.870Z,24.20
2018-07-10T11:42:03.835Z,24.19
2018-07-10T11:43:03.807Z,24.22
2018-07-10T11:44:03.784Z,24.22
2018-07-10T11:45:03.755Z,24.29
2018-07-10T11:46:03.730Z,24.31
2018-07-10T11:47:03.715Z,24.31
2018-07-10T11:48:03.691Z,24.29
2018-07-10T11:49:03.660Z,24.39
2018-07-10T11:50:03.631Z,24.34
2018-07-10T11:51:03.609Z,24.34
2018-07-10T11:52:03.582Z,24.35
2018-07-10T11:53:03.557Z,24.31
2018-07-10T11:54:03.527Z,24.39
2018-07-10T11:55:03.708Z,24.38
2018-07-10T11:56:03.473Z,24.37
2018-07-10T11:57:03.466Z,24.41
2018-07-10T11:58:03.433Z,24.50
2018-07-10T11:59:03.396Z,24.52
2018-07-10T12:00:03.376Z,24.63
2018-07-10T12:01:03.701Z,24.68
2018-07-10T12:02:03.321Z,24.67
2018-07-10T12:03:03.320Z,24.67
2018-07-10T12:04:03.279Z,24.71
2018-07-10T12:05:03.314Z,24.80
2018-07-10T12:06:03.244Z,24.75
2018-07-10T12:07:03.502Z,24.69
2018-07-10T12:08:03.379Z,25.39
2018-07-10T12:09:03.147Z,26.12
2018-07-10T12:10:03.144Z,26.55
2018-07-10T12:11:03.098Z,26.95
2018-07-10T12:12:03.068Z,27.28
2018-07-10T12:13:03.047Z,27.51
2018-07-10T12:14:03.025Z,27.59
2018-07-10T12:15:03.078Z,27.62
2018-07-10T12:16:03.060Z,27.66
2018-07-10T12:17:02.941Z,27.50
2018-07-10T12:18:02.927Z,27.42
2018-07-10T12:19:02.896Z,27.14
2018-07-10T12:20:02.880Z,27.06
2018-07-10T12:21:02.846Z,27.02
2018-07-10T12:22:02.821Z,26.94
2018-07-10T12:23:02.795Z,26.83
2018-07-10T12:24:02.883Z,26.80
2018-07-10T12:25:02.756Z,26.62
2018-07-10T12:26:02.735Z,26.59
2018-07-10T12:27:02.702Z,26.47
2018-07-10T12:29:02.662Z,26.52
2018-07-10T12:30:02.640Z,26.44
2018-07-10T12:31:02.651Z,26.61
2018-07-10T12:32:02.583Z,26.49
2018-07-10T12:33:02.719Z,26.40
2018-07-10T12:34:02.536Z,26.36
2018-07-10T12:35:02.513Z,26.39
2018-07-10T12:36:02.489Z,26.36
2018-07-10T12:37:02.473Z,26.50
2018-07-10T12:38:02.454Z,26.52
2018-07-10T12:39:02.567Z,26.62
2018-07-10T12:40:02.400Z,26.61
2018-07-10T12:41:02.368Z,26.58
2018-07-10T12:42:02.349Z,26.64
2018-07-10T12:43:02.318Z,26.67
2018-07-10T12:44:02.294Z,26.69
2018-07-10T12:45:02.327Z,26.77
2018-07-10T12:46:02.247Z,26.79
2018-07-10T12:47:02.223Z,26.73
2018-07-10T12:48:02.232Z,26.69
2018-07-10T12:49:02.172Z,26.68
2018-07-10T12:50:02.151Z,26.64
2018-07-10T12:51:02.123Z,26.69
2018-07-10T12:52:02.102Z,26.73
2018-07-10T12:53:02.075Z,26.81
2018-07-10T12:54:02.047Z,26.77
2018-07-10T12:55:02.034Z,26.80
2018-07-10T12:56:01.995Z,26.79
2018-07-10T12:57:01.968Z,26.74